Time;durP1;ratioP1;P1;durP2;ratioP2;P2;SDS_P1;SDS_P2;PMS_P1;PMS_P2;Temp;Humidity;BMP_temperature;BMP_pressure;BME280_temperature;BME280_humidity;BME280_pressure;Samples;Min_cycle;Max_cycle;Signal;HPM_P1;HPM_P2
2022/02/17 00:00:13;;;;;;;7.15;3.20;;;;;;;;;;2055411;28;20174;-66
2022/02/17 00:01:13;;;;;;;7.78;2.80;;;;;;;;;;2052118;28;20170;-68
2022/02/17 00:02:13;;;;;;;6.53;2.65;;;;;;;;;;2055583;28;20265;-66
2022/02/17 00:03:14;;;;;;;5.68;2.60;;;;;;;;;;2051921;28;20253;-62
2022/02/17 00:04:14;;;;;;;10.98;2.95;;;;;;;;;;2053138;28;20173;-66
2022/02/17 00:05:14;;;;;;;4.50;2.78;;;;;;;;;;2054506;28;20281;-68
2022/02/17 00:06:15;;;;;;;6.55;2.80;;;;;;;;;;2055377;28;20209;-66
2022/02/17 00:07:15;;;;;;;7.20;2.80;;;;;;;;;;2055120;28;20174;-66
2022/02/17 00:08:16;;;;;;;8.02;3.33;;;;;;;;;;2043760;28;20180;-66
2022/02/17 00:09:16;;;;;;;3.85;2.92;;;;;;;;;;2047399;29;20252;-67
2022/02/17 00:10:17;;;;;;;7.85;2.67;;;;;;;;;;2052029;28;20178;-64
2022/02/17 00:11:18;;;;;;;7.18;2.58;;;;;;;;;;2054236;28;20174;-66
2022/02/17 00:12:18;;;;;;;8.05;3.13;;;;;;;;;;2047682;29;20623;-66
2022/02/17 00:13:18;;;;;;;5.47;2.75;;;;;;;;;;2056048;28;20174;-66
2022/02/17 00:14:18;;;;;;;4.57;2.95;;;;;;;;;;2054290;28;20174;-65
2022/02/17 00:15:19;;;;;;;5.95;2.53;;;;;;;;;;2052741;28;20628;-65
2022/02/17 00:16:20;;;;;;;8.77;3.38;;;;;;;;;;2052654;28;20273;-66
2022/02/17 00:17:20;;;;;;;7.85;2.75;;;;;;;;;;2049875;28;20670;-65
2022/02/17 00:18:23;;;;;;;8.27;2.85;;;;;;;;;;2051920;28;20179;-64
2022/02/17 00:19:23;;;;;;;5.75;2.95;;;;;;;;;;2042085;29;20176;-63
2022/02/17 00:20:24;;;;;;;5.22;2.85;;;;;;;;;;2051052;28;20186;-66
2022/02/17 00:21:24;;;;;;;6.35;2.55;;;;;;;;;;2055371;28;20616;-65
2022/02/17 00:22:25;;;;;;;7.18;2.72;;;;;;;;;;2049106;28;20206;-65
2022/02/17 00:23:25;;;;;;;7.10;2.67;;;;;;;;;;2054053;28;20178;-65
2022/02/17 00:24:27;;;;;;;7.03;2.85;;;;;;;;;;2045707;28;20180;-66
2022/02/17 00:25:27;;;;;;;7.13;2.65;;;;;;;;;;2054856;28;20635;-64
2022/02/17 00:26:27;;;;;;;8.52;2.30;;;;;;;;;;2046656;28;20211;-66
2022/02/17 00:27:27;;;;;;;5.53;2.67;;;;;;;;;;2054446;28;20204;-63
2022/02/17 00:28:28;;;;;;;4.30;2.92;;;;;;;;;;2043130;28;20203;-65
2022/02/17 00:29:29;;;;;;;7.38;3.38;;;;;;;;;;2053591;28;20751;-66
2022/02/17 00:30:30;;;;;;;7.13;2.65;;;;;;;;;;2044014;28;20179;-67
2022/02/17 00:31:30;;;;;;;5.25;2.05;;;;;;;;;;2056081;28;20195;-66
2022/02/17 00:32:31;;;;;;;5.15;3.03;;;;;;;;;;2042225;29;20568;-67
2022/02/17 00:33:32;;;;;;;10.35;2.65;;;;;;;;;;2056803;28;20647;-62
2022/02/17 00:34:33;;;;;;;5.05;2.67;;;;;;;;;;2056193;28;20174;-66
2022/02/17 00:35:34;;;;;;;5.90;2.65;;;;;;;;;;2053859;28;20543;-62
2022/02/17 00:36:35;;;;;;;8.60;2.28;;;;;;;;;;2057943;28;20288;-66
2022/02/17 00:37:35;;;;;;;9.93;3.05;;;;;;;;;;2056027;28;20198;-66
2022/02/17 00:38:36;;;;;;;6.22;2.53;;;;;;;;;;2050039;28;20182;-65
2022/02/17 00:39:37;;;;;;;7.10;2.75;;;;;;;;;;2056479;28;20205;-64
2022/02/17 00:40:37;;;;;;;7.97;2.92;;;;;;;;;;2053067;28;20234;-63
2022/02/17 00:41:38;;;;;;;4.38;2.45;;;;;;;;;;2055054;28;20173;-64
2022/02/17 00:42:38;;;;;;;5.40;2.92;;;;;;;;;;2057643;28;20170;-66
2022/02/17 00:43:38;;;;;;;7.78;2.80;;;;;;;;;;2055250;28;20327;-65
2022/02/17 00:44:39;;;;;;;7.70;2.90;;;;;;;;;;2048456;29;20175;-66
2022/02/17 00:45:40;;;;;;;6.47;2.75;;;;;;;;;;2048245;28;20254;-66
2022/02/17 00:46:40;;;;;;;7.65;2.75;;;;;;;;;;2056354;28;20202;-65
2022/02/17 00:47:40;;;;;;;8.05;3.30;;;;;;;;;;2049626;28;20888;-65
2022/02/17 00:48:43;;;;;;;7.47;2.92;;;;;;;;;;2048214;29;20758;-62
2022/02/17 00:49:45;;;;;;;7.38;2.72;;;;;;;;;;2042514;28;20649;-64
2022/02/17 00:50:45;;;;;;;10.38;3.10;;;;;;;;;;2043049;28;20192;-67
2022/02/17 00:51:46;;;;;;;8.80;3.00;;;;;;;;;;2041451;29;20258;-65
2022/02/17 00:52:49;;;;;;;7.82;2.75;;;;;;;;;;2039172;28;20172;-65
2022/02/17 00:53:50;;;;;;;5.90;2.40;;;;;;;;;;2043099;29;20254;-65
2022/02/17 00:54:50;;;;;;;9.55;2.80;;;;;;;;;;2049720;28;20238;-65
2022/02/17 00:55:50;;;;;;;8.48;3.22;;;;;;;;;;2051414;28;20202;-64
2022/02/17 00:56:52;;;;;;;7.10;2.85;;;;;;;;;;2046183;28;20728;-66
2022/02/17 00:57:59;;;;;;;9.38;3.15;;;;;;;;;;2049966;28;20230;-65
2022/02/17 00:59:00;;;;;;;5.97;2.50;;;;;;;;;;2045795;29;20167;-66
2022/02/17 01:00:03;;;;;;;6.40;2.72;;;;;;;;;;2041108;28;20173;-64
2022/02/17 01:01:07;;;;;;;7.93;2.97;;;;;;;;;;2038746;29;20270;-64
2022/02/17 01:02:08;;;;;;;5.72;2.10;;;;;;;;;;2045585;29;20175;-63
2022/02/17 01:03:08;;;;;;;4.47;2.13;;;;;;;;;;2043903;29;20311;-66
2022/02/17 01:04:10;;;;;;;5.82;2.33;;;;;;;;;;2043511;29;20202;-66
2022/02/17 01:05:11;;;;;;;6.70;2.42;;;;;;;;;;2046074;28;20179;-65
2022/02/17 01:06:11;;;;;;;6.95;2.38;;;;;;;;;;2052356;28;20738;-65
2022/02/17 01:07:11;;;;;;;2.53;1.83;;;;;;;;;;2050948;28;20201;-65
2022/02/17 01:08:11;;;;;;;5.18;1.75;;;;;;;;;;2053231;28;20561;-65
2022/02/17 01:09:13;;;;;;;5.22;2.03;;;;;;;;;;2054081;28;20186;-64
2022/02/17 01:10:13;;;;;;;5.53;1.90;;;;;;;;;;2053988;28;20667;-65
2022/02/17 01:11:13;;;;;;;4.82;2.03;;;;;;;;;;2047265;29;20175;-63
2022/02/17 01:12:14;;;;;;;3.05;2.10;;;;;;;;;;2051318;28;20550;-65
2022/02/17 01:13:15;;;;;;;6.45;2.05;;;;;;;;;;2055764;28;20166;-63
2022/02/17 01:14:15;;;;;;;5.15;2.10;;;;;;;;;;2051983;28;20234;-64
2022/02/17 01:15:15;;;;;;;2.53;1.38;;;;;;;;;;2054333;28;20162;-64
2022/02/17 01:16:15;;;;;;;3.85;1.88;;;;;;;;;;2052288;28;20201;-64
2022/02/17 01:17:16;;;;;;;3.45;1.48;;;;;;;;;;2049552;28;20194;-64
2022/02/17 01:18:16;;;;;;;4.68;2.20;;;;;;;;;;2046033;28;20179;-64
2022/02/17 01:19:17;;;;;;;5.03;1.80;;;;;;;;;;2052309;28;20193;-65
2022/02/17 01:20:21;;;;;;;4.20;1.85;;;;;;;;;;2050904;28;20270;-66
2022/02/17 01:21:23;;;;;;;4.63;1.75;;;;;;;;;;2047568;28;20199;-64
2022/02/17 01:22:23;;;;;;;2.35;1.70;;;;;;;;;;2044889;28;20172;-66
2022/02/17 01:23:28;;;;;;;2.13;1.85;;;;;;;;;;2054648;28;20178;-64
2022/02/17 01:24:28;;;;;;;2.80;1.55;;;;;;;;;;2041228;29;20187;-63
2022/02/17 01:25:28;;;;;;;6.30;2.03;;;;;;;;;;2040683;29;20172;-62
2022/02/17 01:26:29;;;;;;;1.90;1.52;;;;;;;;;;2033600;29;20239;-65
2022/02/17 01:27:35;;;;;;;4.43;1.48;;;;;;;;;;2048257;29;20171;-65
2022/02/17 01:28:36;;;;;;;2.75;1.77;;;;;;;;;;2056164;28;20617;-65
2022/02/17 01:29:36;;;;;;;3.67;1.77;;;;;;;;;;2042290;28;20291;-65
2022/02/17 01:30:38;;;;;;;3.72;1.98;;;;;;;;;;2048060;28;20230;-67
2022/02/17 01:31:40;;;;;;;2.90;1.92;;;;;;;;;;2035509;28;20173;-67
2022/02/17 01:32:49;;;;;;;2.63;2.05;;;;;;;;;;2048107;29;20221;-67
2022/02/17 01:33:50;;;;;;;2.35;1.65;;;;;;;;;;2047064;28;20571;-67
2022/02/17 01:34:51;;;;;;;4.10;1.77;;;;;;;;;;2054324;28;20201;-67
2022/02/17 01:35:51;;;;;;;3.15;1.85;;;;;;;;;;2042706;29;20187;-66
2022/02/17 01:36:51;;;;;;;4.28;2.10;;;;;;;;;;2046639;28;20170;-66
2022/02/17 01:37:51;;;;;;;6.75;1.90;;;;;;;;;;2040534;29;20672;-65
2022/02/17 01:38:52;;;;;;;2.85;1.60;;;;;;;;;;2042774;29;20180;-66
2022/02/17 01:39:52;;;;;;;3.97;2.20;;;;;;;;;;2045397;29;20175;-66
2022/02/17 01:40:53;;;;;;;3.53;1.83;;;;;;;;;;2054085;28;20663;-66
2022/02/17 01:41:55;;;;;;;3.35;1.90;;;;;;;;;;2054285;28;20179;-67
2022/02/17 01:42:59;;;;;;;3.88;1.85;;;;;;;;;;2039251;29;20202;-64
2022/02/17 01:44:02;;;;;;;4.57;1.70;;;;;;;;;;2044544;28;20174;-64
2022/02/17 01:45:04;;;;;;;4.07;1.80;;;;;;;;;;2046672;28;20172;-65
2022/02/17 01:46:05;;;;;;;4.95;2.00;;;;;;;;;;2051131;28;20237;-66
2022/02/17 01:47:08;;;;;;;3.10;1.92;;;;;;;;;;2054135;28;20170;-64
2022/02/17 01:48:08;;;;;;;4.32;2.15;;;;;;;;;;2045623;28;20740;-65
2022/02/17 01:49:12;;;;;;;4.82;2.25;;;;;;;;;;2044149;29;20183;-65
2022/02/17 01:50:13;;;;;;;3.90;2.13;;;;;;;;;;2046166;29;20178;-61
2022/02/17 01:51:13;;;;;;;3.53;1.95;;;;;;;;;;2054951;28;20536;-64
2022/02/17 01:52:15;;;;;;;5.85;2.00;;;;;;;;;;2052795;28;20175;-65
2022/02/17 01:53:16;;;;;;;7.35;2.30;;;;;;;;;;2052877;28;20647;-65
2022/02/17 01:54:18;;;;;;;4.75;2.50;;;;;;;;;;2055157;28;20170;-64
2022/02/17 01:55:20;;;;;;;5.43;2.33;;;;;;;;;;2039922;29;20279;-66
2022/02/17 01:56:20;;;;;;;6.55;2.28;;;;;;;;;;2047984;28;20176;-65
2022/02/17 01:57:25;;;;;;;4.70;2.78;;;;;;;;;;2046161;28;20242;-63
2022/02/17 01:58:31;;;;;;;7.95;2.95;;;;;;;;;;2040820;29;20562;-66
2022/02/17 01:59:40;;;;;;;5.55;2.50;;;;;;;;;;2054865;28;20534;-61
2022/02/17 02:00:45;;;;;;;5.38;2.38;;;;;;;;;;2050805;28;20185;-65
2022/02/17 02:01:45;;;;;;;4.28;2.30;;;;;;;;;;2049324;28;20598;-64
2022/02/17 02:02:46;;;;;;;6.35;2.20;;;;;;;;;;2041337;29;20183;-65
2022/02/17 02:03:51;;;;;;;8.57;2.38;;;;;;;;;;2047090;29;20186;-66
2022/02/17 02:04:51;;;;;;;4.05;2.33;;;;;;;;;;2040562;29;20820;-67
2022/02/17 02:05:52;;;;;;;7.40;2.17;;;;;;;;;;2040122;29;20199;-65
2022/02/17 02:06:52;;;;;;;7.07;2.55;;;;;;;;;;2048429;29;20187;-66
2022/02/17 02:07:53;;;;;;;6.95;2.63;;;;;;;;;;2051553;28;20190;-65
2022/02/17 02:09:00;;;;;;;2.95;2.10;;;;;;;;;;2051350;28;20166;-64
2022/02/17 02:10:04;;;;;;;4.28;2.25;;;;;;;;;;2049107;28;20170;-66
2022/02/17 02:11:06;;;;;;;8.40;3.08;;;;;;;;;;2044357;28;20171;-64
2022/02/17 02:12:16;;;;;;;4.93;2.80;;;;;;;;;;2047134;28;20217;-66
2022/02/17 02:13:17;;;;;;;10.02;2.22;;;;;;;;;;2047993;29;20175;-64
2022/02/17 02:14:17;;;;;;;7.75;2.75;;;;;;;;;;2044103;28;20286;-65
2022/02/17 02:15:18;;;;;;;7.53;3.00;;;;;;;;;;2048048;28;20163;-66
2022/02/17 02:16:19;;;;;;;5.57;2.88;;;;;;;;;;2052810;28;20175;-66
2022/02/17 02:17:20;;;;;;;8.45;3.05;;;;;;;;;;2050144;28;20190;-63
2022/02/17 02:18:22;;;;;;;7.43;2.35;;;;;;;;;;2050173;28;20194;-65
2022/02/17 02:19:25;;;;;;;9.57;3.05;;;;;;;;;;2054536;28;20178;-64
2022/02/17 02:20:30;;;;;;;6.07;2.80;;;;;;;;;;2055210;28;20181;-64
2022/02/17 02:21:30;;;;;;;4.50;2.17;;;;;;;;;;2039252;28;20193;-65
2022/02/17 02:22:31;;;;;;;12.50;3.15;;;;;;;;;;2054637;28;20248;-66
2022/02/17 02:23:32;;;;;;;6.65;2.75;;;;;;;;;;2048097;28;20262;-62
2022/02/17 02:24:36;;;;;;;7.53;2.70;;;;;;;;;;2055563;28;20681;-66
2022/02/17 02:25:39;;;;;;;9.18;2.95;;;;;;;;;;2053368;28;20261;-65
2022/02/17 02:26:40;;;;;;;7.55;3.33;;;;;;;;;;2041532;28;20208;-65
2022/02/17 02:27:40;;;;;;;7.35;2.58;;;;;;;;;;2041624;29;20280;-64
2022/02/17 02:28:41;;;;;;;9.02;3.15;;;;;;;;;;2046692;29;20175;-65
2022/02/17 02:29:42;;;;;;;11.85;3.10;;;;;;;;;;2032848;28;20252;-63
2022/02/17 02:30:43;;;;;;;5.80;2.80;;;;;;;;;;2047992;28;20167;-64
2022/02/17 02:31:44;;;;;;;7.38;3.10;;;;;;;;;;2050980;28;20194;-65
2022/02/17 02:32:44;;;;;;;8.20;3.22;;;;;;;;;;2049231;28;20214;-65
2022/02/17 02:33:45;;;;;;;7.47;3.20;;;;;;;;;;2046789;28;20203;-65
2022/02/17 02:34:45;;;;;;;9.77;2.97;;;;;;;;;;2043418;28;20251;-65
2022/02/17 02:35:50;;;;;;;8.00;3.42;;;;;;;;;;2051732;28;20170;-65
2022/02/17 02:36:51;;;;;;;8.57;3.22;;;;;;;;;;2053866;28;20181;-62
2022/02/17 02:37:51;;;;;;;7.45;3.20;;;;;;;;;;2049820;28;20722;-65
2022/02/17 02:38:58;;;;;;;5.03;2.83;;;;;;;;;;2053724;28;20173;-61
2022/02/17 02:40:08;;;;;;;8.88;3.20;;;;;;;;;;2045459;28;20176;-65
2022/02/17 02:41:09;;;;;;;5.40;2.72;;;;;;;;;;2050847;28;20606;-65
2022/02/17 02:42:16;;;;;;;11.43;3.10;;;;;;;;;;2044513;28;20179;-65
2022/02/17 02:43:17;;;;;;;7.43;2.83;;;;;;;;;;2040567;29;20279;-64
2022/02/17 02:44:17;;;;;;;8.57;3.25;;;;;;;;;;2049706;28;20166;-65
2022/02/17 02:45:24;;;;;;;8.85;2.88;;;;;;;;;;2048368;28;20230;-64
2022/02/17 02:46:25;;;;;;;9.48;3.70;;;;;;;;;;2045062;29;20326;-66
2022/02/17 02:47:27;;;;;;;8.48;3.25;;;;;;;;;;2042219;28;20235;-65
2022/02/17 02:48:28;;;;;;;7.40;3.15;;;;;;;;;;2054310;28;20182;-63
2022/02/17 02:49:29;;;;;;;10.05;3.08;;;;;;;;;;2047064;29;20254;-64
2022/02/17 02:50:29;;;;;;;6.13;3.40;;;;;;;;;;2048380;28;20718;-64
2022/02/17 02:51:29;;;;;;;10.15;3.35;;;;;;;;;;2055249;28;20182;-65
2022/02/17 02:52:30;;;;;;;9.27;3.13;;;;;;;;;;2049081;28;20195;-65
2022/02/17 02:53:30;;;;;;;10.10;3.08;;;;;;;;;;2047097;29;20186;-64
2022/02/17 02:54:31;;;;;;;8.35;2.80;;;;;;;;;;2055199;28;20253;-65
2022/02/17 02:55:32;;;;;;;9.50;3.95;;;;;;;;;;2047661;28;20678;-64
2022/02/17 02:56:33;;;;;;;7.05;3.03;;;;;;;;;;2040411;29;20262;-64
2022/02/17 02:57:34;;;;;;;8.45;2.78;;;;;;;;;;2041110;28;20258;-64
2022/02/17 02:58:36;;;;;;;6.07;3.00;;;;;;;;;;2056265;28;20186;-61
2022/02/17 02:59:41;;;;;;;7.47;2.30;;;;;;;;;;2042356;28;20651;-64
2022/02/17 03:00:45;;;;;;;8.55;2.33;;;;;;;;;;2053722;28;20232;-63
2022/02/17 03:01:45;;;;;;;5.57;2.40;;;;;;;;;;2052479;28;20556;-63
2022/02/17 03:02:45;;;;;;;7.38;2.47;;;;;;;;;;2040355;29;20190;-64
2022/02/17 03:03:49;;;;;;;10.10;3.25;;;;;;;;;;2046732;28;20385;-63
2022/02/17 03:04:50;;;;;;;6.07;2.88;;;;;;;;;;2052535;28;20202;-64
2022/02/17 03:05:52;;;;;;;7.50;2.47;;;;;;;;;;2039788;29;20209;-65
2022/02/17 03:06:52;;;;;;;4.80;2.53;;;;;;;;;;2039798;29;20279;-63
2022/02/17 03:07:55;;;;;;;6.18;2.88;;;;;;;;;;2043214;28;20235;-62
2022/02/17 03:08:56;;;;;;;6.55;3.03;;;;;;;;;;2043573;29;20187;-64
2022/02/17 03:10:01;;;;;;;9.85;2.95;;;;;;;;;;2045245;28;20222;-64
2022/02/17 03:11:02;;;;;;;8.38;3.00;;;;;;;;;;2035819;29;20539;-65
2022/02/17 03:12:14;;;;;;;6.13;2.78;;;;;;;;;;2045658;28;20168;-64
2022/02/17 03:13:17;;;;;;;4.25;3.00;;;;;;;;;;2045130;29;20175;-64
2022/02/17 03:14:21;;;;;;;11.07;2.80;;;;;;;;;;2035295;29;20181;-62
2022/02/17 03:15:22;;;;;;;5.68;2.63;;;;;;;;;;2036555;29;20215;-65
2022/02/17 03:16:23;;;;;;;6.25;2.50;;;;;;;;;;2033378;29;20175;-65
2022/02/17 03:17:24;;;;;;;7.85;2.67;;;;;;;;;;2052732;28;20206;-64
2022/02/17 03:18:26;;;;;;;9.88;3.45;;;;;;;;;;2054005;28;20171;-62
2022/02/17 03:19:26;;;;;;;9.30;3.53;;;;;;;;;;2044322;29;20666;-64
2022/02/17 03:20:27;;;;;;;7.20;2.53;;;;;;;;;;2049564;28;20631;-64
2022/02/17 03:21:27;;;;;;;9.45;3.53;;;;;;;;;;2060693;28;20166;-65
2022/02/17 03:22:27;;;;;;;6.93;2.70;;;;;;;;;;2062932;28;20205;-63
2022/02/17 03:23:28;;;;;;;9.25;3.30;;;;;;;;;;2053246;28;20222;-65
2022/02/17 03:24:42;;;;;;;8.05;3.17;;;;;;;;;;2048758;28;20681;-63
2022/02/17 03:25:42;;;;;;;8.48;2.97;;;;;;;;;;2037066;29;20189;-64
2022/02/17 03:26:48;;;;;;;6.63;3.10;;;;;;;;;;2054684;28;20175;-65
2022/02/17 03:27:48;;;;;;;8.15;3.22;;;;;;;;;;2050840;28;20336;-64
2022/02/17 03:29:14;;;;;;;9.90;3.10;;;;;;;;;;2047038;28;20284;-65
2022/02/17 03:30:19;;;;;;;9.63;2.92;;;;;;;;;;2051958;28;20182;-64
2022/02/17 03:31:23;;;;;;;8.65;2.70;;;;;;;;;;2046023;28;20195;-65
2022/02/17 03:32:29;;;;;;;8.80;3.33;;;;;;;;;;2055446;28;20170;-63
2022/02/17 03:33:29;;;;;;;11.95;3.67;;;;;;;;;;2048051;28;20863;-64
2022/02/17 03:34:32;;;;;;;9.02;2.45;;;;;;;;;;2043453;29;20891;-63
2022/02/17 03:35:32;;;;;;;7.60;3.30;;;;;;;;;;2036659;29;20266;-64
2022/02/17 03:36:32;;;;;;;9.23;3.78;;;;;;;;;;2049275;29;20175;-64
2022/02/17 03:37:34;;;;;;;6.65;3.00;;;;;;;;;;2049473;28;20226;-65
2022/02/17 03:38:34;;;;;;;7.43;3.08;;;;;;;;;;2056748;28;20875;-65
2022/02/17 03:39:35;;;;;;;10.98;3.92;;;;;;;;;;2040668;28;20259;-65
2022/02/17 03:40:43;;;;;;;12.07;4.05;;;;;;;;;;2035820;28;20309;-62
2022/02/17 03:41:46;;;;;;;10.00;3.15;;;;;;;;;;2042012;29;20370;-63
2022/02/17 03:42:47;;;;;;;11.02;3.60;;;;;;;;;;2040640;29;20190;-65
2022/02/17 03:43:47;;;;;;;6.72;3.05;;;;;;;;;;2043880;28;20168;-64
2022/02/17 03:44:54;;;;;;;7.80;3.25;;;;;;;;;;2053575;28;20186;-65
2022/02/17 03:46:03;;;;;;;12.23;4.15;;;;;;;;;;2050196;28;20593;-64
2022/02/17 03:47:04;;;;;;;7.10;3.50;;;;;;;;;;2051721;28;20180;-65
2022/02/17 03:48:39;;;;;;;10.60;3.60;;;;;;;;;;2077965;23;20698;-59
2022/02/17 03:49:42;;;;;;;13.38;3.67;;;;;;;;;;2057952;28;20616;-60
2022/02/17 03:50:43;;;;;;;11.10;4.38;;;;;;;;;;2060390;28;20190;-60
2022/02/17 03:51:47;;;;;;;13.98;3.67;;;;;;;;;;2059495;28;20179;-62
2022/02/17 03:52:47;;;;;;;10.80;3.63;;;;;;;;;;2051725;28;20218;-63
2022/02/17 03:53:51;;;;;;;8.93;3.75;;;;;;;;;;2059302;28;20629;-57
2022/02/17 03:54:52;;;;;;;13.23;4.70;;;;;;;;;;2063824;28;20183;-62
2022/02/17 03:55:53;;;;;;;8.27;4.13;;;;;;;;;;2065579;28;20237;-60
2022/02/17 03:56:55;;;;;;;12.63;4.72;;;;;;;;;;2064457;28;20173;-61
2022/02/17 03:59:38;;;;;;;7.25;3.15;;;;;;;;;;2066215;28;20173;-61
2022/02/17 04:00:38;;;;;;;9.25;3.67;;;;;;;;;;2061062;28;20221;-61
2022/02/17 04:01:39;;;;;;;11.13;3.42;;;;;;;;;;2065039;28;20677;-60
2022/02/17 04:02:41;;;;;;;9.82;4.25;;;;;;;;;;2064690;28;20264;-58
2022/02/17 04:03:42;;;;;;;11.90;3.72;;;;;;;;;;2062026;28;20186;-60
2022/02/17 04:04:43;;;;;;;7.85;3.42;;;;;;;;;;2064514;28;20635;-60
2022/02/17 04:05:43;;;;;;;9.57;3.67;;;;;;;;;;2053543;28;20194;-60
2022/02/17 04:06:43;;;;;;;8.90;3.58;;;;;;;;;;2059178;28;20233;-61
2022/02/17 04:07:44;;;;;;;12.35;3.60;;;;;;;;;;2052676;28;20660;-60
2022/02/17 04:09:13;;;;;;;5.53;2.55;;;;;;;;;;2060412;28;20225;-61
2022/02/17 04:10:15;;;;;;;9.98;3.08;;;;;;;;;;2059249;28;20258;-60
2022/02/17 04:11:16;;;;;;;5.85;2.80;;;;;;;;;;2059089;28;20179;-60
2022/02/17 04:12:18;;;;;;;9.70;3.53;;;;;;;;;;2054355;28;20167;-60
2022/02/17 04:13:19;;;;;;;8.35;2.83;;;;;;;;;;2051215;28;20171;-61
2022/02/17 04:14:22;;;;;;;7.20;3.08;;;;;;;;;;2051692;28;20230;-60
2022/02/17 04:15:24;;;;;;;7.65;3.35;;;;;;;;;;2055792;28;20167;-60
2022/02/17 04:16:25;;;;;;;5.50;2.92;;;;;;;;;;2056455;28;20170;-60
2022/02/17 04:17:43;;;;;;;9.68;3.25;;;;;;;;;;2065157;28;20178;-59
2022/02/17 04:19:02;;;;;;;17.48;3.35;;;;;;;;;;2067272;28;20150;-61
2022/02/17 04:20:20;;;;;;;8.18;2.90;;;;;;;;;;2067237;28;20167;-60
2022/02/17 04:21:34;;;;;;;5.43;2.97;;;;;;;;;;2067502;28;20544;-61
2022/02/17 04:22:57;;;;;;;9.43;3.42;;;;;;;;;;2067131;28;20181;-61
2022/02/17 04:24:08;;;;;;;8.73;3.53;;;;;;;;;;2068225;28;20602;-60
2022/02/17 04:25:13;;;;;;;8.70;2.75;;;;;;;;;;2062042;28;20541;-60
2022/02/17 04:26:16;;;;;;;8.07;3.47;;;;;;;;;;2061732;28;20317;-60
2022/02/17 04:27:23;;;;;;;11.70;3.85;;;;;;;;;;2066275;28;20172;-60
2022/02/17 04:28:40;;;;;;;12.05;3.60;;;;;;;;;;2070190;28;20670;-60
2022/02/17 04:29:41;;;;;;;6.07;3.28;;;;;;;;;;2072903;28;20289;-61
2022/02/17 04:30:44;;;;;;;7.72;3.55;;;;;;;;;;2065702;28;20285;-59
2022/02/17 04:31:44;;;;;;;8.45;3.47;;;;;;;;;;2050941;28;20170;-61
2022/02/17 04:32:46;;;;;;;8.32;2.95;;;;;;;;;;2064987;28;20178;-61
2022/02/17 04:34:08;;;;;;;8.75;3.38;;;;;;;;;;2060471;28;20176;-61
2022/02/17 04:35:09;;;;;;;11.95;3.65;;;;;;;;;;2066832;28;20664;-60
2022/02/17 04:36:09;;;;;;;4.95;3.17;;;;;;;;;;2066754;28;20220;-61
2022/02/17 04:37:12;;;;;;;8.18;3.38;;;;;;;;;;2058589;28;20175;-59
2022/02/17 04:38:12;;;;;;;10.18;3.10;;;;;;;;;;2057473;28;20294;-61
2022/02/17 04:39:19;;;;;;;5.78;3.30;;;;;;;;;;2064600;28;20166;-59
2022/02/17 04:42:17;;;;;;;9.95;3.50;;;;;;;;;;2059477;28;20170;-59
2022/02/17 04:43:02;;;;;;;9.95;3.45;;;;;;;;;;2068552;28;20200;-61
2022/02/17 04:44:02;;;;;;;7.63;3.67;;;;;;;;;;2069507;28;20169;-58
2022/02/17 04:45:04;;;;;;;9.35;3.53;;;;;;;;;;2063528;28;20728;-56
2022/02/17 04:46:05;;;;;;;5.55;2.83;;;;;;;;;;2056619;28;20158;-60
2022/02/17 04:47:06;;;;;;;6.82;3.20;;;;;;;;;;2053655;28;20178;-58
2022/02/17 04:48:06;;;;;;;10.13;3.22;;;;;;;;;;2045658;28;20517;-57
2022/02/17 04:49:07;;;;;;;8.98;3.20;;;;;;;;;;2061274;28;20150;-58
2022/02/17 04:50:07;;;;;;;6.38;3.05;;;;;;;;;;2067669;28;20174;-60
2022/02/17 04:51:12;;;;;;;6.53;3.22;;;;;;;;;;2058479;28;20721;-60
2022/02/17 04:52:13;;;;;;;5.65;2.42;;;;;;;;;;2049312;28;20170;-57
2022/02/17 04:53:13;;;;;;;4.30;2.58;;;;;;;;;;2049748;28;20170;-61
2022/02/17 04:54:21;;;;;;;6.95;2.85;;;;;;;;;;2054037;28;20178;-58
2022/02/17 04:55:22;;;;;;;5.80;2.75;;;;;;;;;;2055731;28;21248;-56
2022/02/17 04:56:28;;;;;;;8.63;2.95;;;;;;;;;;2064301;28;20197;-60
2022/02/17 04:57:30;;;;;;;8.45;3.08;;;;;;;;;;2057131;28;20173;-59
2022/02/17 04:58:30;;;;;;;5.63;2.90;;;;;;;;;;2056658;28;20209;-61
2022/02/17 04:59:30;;;;;;;7.05;2.92;;;;;;;;;;2071812;28;20177;-58
2022/02/17 05:00:31;;;;;;;12.18;3.53;;;;;;;;;;2063761;28;20183;-60
2022/02/17 05:01:51;;;;;;;5.53;2.53;;;;;;;;;;2058028;28;20710;-60
2022/02/17 05:03:08;;;;;;;5.60;2.95;;;;;;;;;;2060072;28;20173;-59
2022/02/17 05:04:18;;;;;;;11.18;3.20;;;;;;;;;;2067855;28;20216;-60
2022/02/17 05:05:19;;;;;;;6.78;2.55;;;;;;;;;;2058097;28;20249;-58
2022/02/17 05:06:20;;;;;;;6.32;3.05;;;;;;;;;;2062545;28;20206;-60
2022/02/17 05:07:28;;;;;;;10.85;3.28;;;;;;;;;;2058153;28;20214;-60
2022/02/17 05:08:31;;;;;;;4.70;2.88;;;;;;;;;;2056616;28;20574;-60
2022/02/17 05:09:33;;;;;;;9.82;2.72;;;;;;;;;;2057534;28;20170;-60
2022/02/17 05:10:34;;;;;;;7.78;2.67;;;;;;;;;;2064339;28;20228;-58
2022/02/17 05:11:35;;;;;;;7.57;2.72;;;;;;;;;;2064448;28;20308;-58
2022/02/17 05:12:35;;;;;;;8.25;2.88;;;;;;;;;;2056714;28;20210;-58
2022/02/17 05:13:36;;;;;;;6.43;2.88;;;;;;;;;;2064915;28;20177;-58
2022/02/17 05:14:37;;;;;;;9.35;2.88;;;;;;;;;;2056533;28;20162;-60
2022/02/17 05:15:40;;;;;;;5.03;2.67;;;;;;;;;;2050593;28;20195;-55
2022/02/17 05:16:47;;;;;;;4.20;2.53;;;;;;;;;;2057109;28;20166;-60
2022/02/17 05:17:48;;;;;;;8.00;3.05;;;;;;;;;;2060314;28;20178;-59
2022/02/17 05:18:52;;;;;;;6.55;3.15;;;;;;;;;;2073066;28;20185;-58
2022/02/17 05:19:57;;;;;;;6.30;3.35;;;;;;;;;;2065433;28;20178;-56
2022/02/17 05:21:09;;;;;;;9.13;2.60;;;;;;;;;;2058844;28;20166;-58
2022/02/17 05:22:30;;;;;;;4.50;2.28;;;;;;;;;;2058698;28;20252;-57
2022/02/17 05:23:39;;;;;;;7.63;3.30;;;;;;;;;;2057430;28;20189;-58
2022/02/17 05:24:58;;;;;;;9.05;2.97;;;;;;;;;;2065328;28;20181;-59
2022/02/17 05:26:04;;;;;;;8.13;3.10;;;;;;;;;;2066011;28;20185;-59
2022/02/17 05:27:15;;;;;;;9.00;2.80;;;;;;;;;;2065210;28;20571;-59
2022/02/17 05:28:24;;;;;;;7.75;3.40;;;;;;;;;;2064869;28;20209;-59
2022/02/17 05:29:47;;;;;;;9.25;2.80;;;;;;;;;;2040869;29;20211;-58
2022/02/17 05:31:09;;;;;;;6.43;2.90;;;;;;;;;;2065616;28;20208;-60
2022/02/17 05:32:30;;;;;;;7.32;3.05;;;;;;;;;;2057246;28;20162;-60
2022/02/17 05:33:56;;;;;;;7.43;2.95;;;;;;;;;;2060232;28;20194;-59
2022/02/17 05:35:35;;;;;;;5.53;2.38;;;;;;;;;;2062727;28;20197;-60
2022/02/17 05:37:13;;;;;;;7.07;2.90;;;;;;;;;;2063364;28;20662;-60
2022/02/17 05:38:32;;;;;;;7.30;2.60;;;;;;;;;;2065999;28;20201;-59
2022/02/17 05:39:42;;;;;;;8.85;3.25;;;;;;;;;;2062581;28;20181;-62
2022/02/17 05:40:54;;;;;;;9.38;2.63;;;;;;;;;;2063212;28;20170;-62
2022/02/17 05:41:54;;;;;;;8.38;2.90;;;;;;;;;;2061695;28;20817;-60
2022/02/17 05:42:55;;;;;;;9.52;3.30;;;;;;;;;;2062913;28;20178;-59
2022/02/17 05:43:58;;;;;;;6.00;3.33;;;;;;;;;;2062996;28;20222;-61
2022/02/17 05:44:58;;;;;;;12.60;3.53;;;;;;;;;;2060649;28;20264;-60
2022/02/17 05:45:58;;;;;;;8.60;3.30;;;;;;;;;;2063690;28;20173;-62
2022/02/17 05:46:59;;;;;;;10.32;3.65;;;;;;;;;;2060171;28;20194;-62
2022/02/17 05:48:00;;;;;;;5.95;2.90;;;;;;;;;;2062377;28;20191;-58
2022/02/17 05:49:00;;;;;;;6.15;2.72;;;;;;;;;;2061113;28;20179;-61
2022/02/17 05:50:00;;;;;;;7.07;3.17;;;;;;;;;;2062974;28;20182;-62
2022/02/17 05:51:01;;;;;;;10.05;2.80;;;;;;;;;;2061220;28;20552;-62
2022/02/17 05:52:01;;;;;;;14.00;3.13;;;;;;;;;;2060567;28;20178;-60
2022/02/17 05:53:02;;;;;;;7.28;3.17;;;;;;;;;;2061736;28;20170;-60
2022/02/17 05:54:02;;;;;;;6.13;3.30;;;;;;;;;;2061485;28;20248;-59
2022/02/17 05:55:03;;;;;;;8.05;3.40;;;;;;;;;;2062999;28;20184;-60
2022/02/17 05:56:03;;;;;;;11.00;3.15;;;;;;;;;;2063651;28;20248;-61
2022/02/17 05:57:05;;;;;;;7.53;3.22;;;;;;;;;;2064249;28;20238;-60
2022/02/17 05:58:05;;;;;;;10.73;3.05;;;;;;;;;;2063074;28;20550;-55
2022/02/17 05:59:06;;;;;;;10.90;3.25;;;;;;;;;;2066216;28;20657;-56
2022/02/17 06:00:06;;;;;;;8.93;3.00;;;;;;;;;;2061199;28;20197;-54
2022/02/17 06:01:12;;;;;;;8.35;2.83;;;;;;;;;;2062684;28;20630;-61
2022/02/17 06:02:13;;;;;;;6.55;3.42;;;;;;;;;;2064135;28;20184;-64
2022/02/17 06:03:13;;;;;;;8.18;3.10;;;;;;;;;;2064534;28;20181;-59
2022/02/17 06:04:13;;;;;;;9.40;2.88;;;;;;;;;;2063930;28;20189;-62
2022/02/17 06:05:16;;;;;;;8.98;3.47;;;;;;;;;;2061612;28;20217;-61
2022/02/17 06:06:16;;;;;;;4.60;2.75;;;;;;;;;;2064771;28;20201;-62
2022/02/17 06:07:18;;;;;;;7.05;3.17;;;;;;;;;;2065756;28;20288;-61
2022/02/17 06:08:19;;;;;;;7.97;2.92;;;;;;;;;;2065199;28;20228;-62
2022/02/17 06:09:19;;;;;;;9.93;2.78;;;;;;;;;;2067208;28;20170;-62
2022/02/17 06:10:20;;;;;;;7.20;3.00;;;;;;;;;;2062246;28;20174;-60
2022/02/17 06:11:20;;;;;;;8.73;3.20;;;;;;;;;;2067912;28;20812;-60
2022/02/17 06:12:20;;;;;;;6.72;2.40;;;;;;;;;;2068319;28;20208;-60
2022/02/17 06:13:21;;;;;;;7.47;2.70;;;;;;;;;;2062490;28;20237;-61
2022/02/17 06:14:22;;;;;;;9.35;3.10;;;;;;;;;;2062809;28;20248;-63
2022/02/17 06:15:22;;;;;;;9.35;2.90;;;;;;;;;;2067518;28;20548;-63
2022/02/17 06:16:23;;;;;;;12.07;3.53;;;;;;;;;;2064167;28;20550;-62
2022/02/17 06:17:23;;;;;;;7.07;3.72;;;;;;;;;;2061526;28;20189;-62
2022/02/17 06:18:23;;;;;;;13.27;3.83;;;;;;;;;;2062313;28;20216;-62
2022/02/17 06:19:23;;;;;;;12.70;4.00;;;;;;;;;;2063998;28;20225;-61
2022/02/17 06:20:24;;;;;;;9.25;2.85;;;;;;;;;;2063673;28;20180;-62